< < Back
Terminal Aerodrome Forecast


Current Version              Previous Versions:   1  2  3  4  5  6  7  8  9  

Terminal Aerodrome Forecast

094
FTUS42 KTAE 191900 AAA
TAFVLD
TAF AMD
KVLD 191936Z 1920/2018 09005KT P6SM SCT040 OVC250
      TEMPO 1920/1924 3SM TSRA BKN025CB
     FM200900 04004KT 4SM BR BKN007
     FM201500 06007KT P6SM SCT009 BKN015=

Latest METAR

049
SAUS70 KWBC 200200 RRE
MTRVLD
METAR KVLD 200153Z 02005KT 10SM CLR 22/19 A3003 RMK AO2 SLP175
T02220194


USA.gov is the U.S. government's official web portal to all federal, state and local government web resources and services.